Northampton, MA (01060)

12:51 PM EST on December 25, 2014 (GMT -0500)
Behind Stop and Shop | Change Station
CLOSE
Current Station
Personal Weather Station
Location: Northampton, MA
Elevation: 177 ft
Nearby Weather Stations

Elev 177 ft 42.33 °N, 72.64 °W | Updated 7 minutes ago

Partly Cloudy
Partly Cloudy
50.2 °F
Feels Like 50.2 °F
N
5.0
Wind Variable Wind from SW
Gusts 10.0 mph

Today
High -- | Low -- °F
--% Chance of Precip.
Yesterday
High -- | Low -- °F
Precip. -- in
7:18 AM 4:23 PM
Waxing Crescent, 18% visible
Pressure 29.63 in
Visibility 9.0 miles
Clouds Scattered Clouds 6000 ft
Dew Point 34 °F
Humidity 54%
Rainfall 0.05 in
Snow Depth Not available.
UV 2 out of 12
Pollen .10 out of 12
Air Quality Not available.
Flu Activity Not available.
METAR KCEF 251658Z AUTO 28015G25KT 9SM SCT060 12/00 A2961 RMK AO2 PK WND 28026/43 SLP034 T01201003

More Conditions Fewer Conditions

Pressure 29.63 in
Visibility 9.0 miles
Clouds Scattered Clouds 6000 ft
Dew Point 34 °F
Humidity 54%
Rainfall 0.05 in
Snow Depth Not available.
UV 2 out of 12
Pollen .10 out of 12
Air Quality Not available.
Flu Activity Not available.
METAR KCEF 251658Z AUTO 28015G25KT 9SM SCT060 12/00 A2961 RMK AO2 PK WND 28026/43 SLP034 T01201003

More Conditions Fewer Conditions

10-Day Weather Forecast

Almanac

Astronomy

Dec. 25, 2014 Rise Set
Actual Time
Civil Twilight
Nautical Twilight
Astronomical Twilight
Moon
Length of Visible Light
Length of Day
Tomorrow will be .
, % of the Moon is Illuminated

Today's Extremes

State Highs State Lows

Community

WunderPhotos

Upload Photos

1,780,351 photos uploaded!

WunderBlogs® & News

Nearby

Air Quality

  Air Quality AQ Index Pollutant
Not available.

Snow Depth

Station Depth Elevation

Earthquake Activity

City Distance Mag. Time & Date
Minimum magnitude displayed is 2.5.

Coastal Water Temperatures

Place Temperature

Nearby Weather Stations